createdAt,value
2018-05-27T00:03:49.079Z,86.50
2018-05-27T00:08:50.404Z,86.90
2018-05-27T00:13:52.482Z,87.80
2018-05-27T00:18:53.775Z,87.70
2018-05-27T00:23:55.063Z,87.30
2018-05-27T00:28:56.375Z,87.30
2018-05-27T00:33:57.668Z,87.00
2018-05-27T00:38:58.977Z,87.60
2018-05-27T00:44:00.278Z,87.20
2018-05-27T00:49:02.332Z,87.10
2018-05-27T00:54:03.666Z,87.10
2018-05-27T00:59:04.987Z,87.30
2018-05-27T01:04:06.291Z,87.30
2018-05-27T01:09:07.619Z,86.80
2018-05-27T01:14:08.924Z,85.90
2018-05-27T01:19:10.271Z,86.30
2018-05-27T01:24:11.688Z,86.00
2018-05-27T01:29:12.982Z,86.70
2018-05-27T01:34:14.305Z,87.10
2018-05-27T01:39:15.604Z,88.00
2018-05-27T01:44:16.924Z,89.10
2018-05-27T01:49:18.228Z,88.40
2018-05-27T01:54:19.519Z,88.50
2018-05-27T01:59:20.811Z,88.80
2018-05-27T02:04:22.093Z,87.70
2018-05-27T02:09:23.412Z,87.60
2018-05-27T02:14:24.694Z,87.60
2018-05-27T02:19:25.994Z,88.00
2018-05-27T02:24:27.290Z,88.20
2018-05-27T02:29:29.313Z,88.10
2018-05-27T02:34:30.583Z,88.10
2018-05-27T02:39:31.891Z,87.70
2018-05-27T02:44:33.930Z,88.10
2018-05-27T02:49:35.240Z,88.10
2018-05-27T02:54:37.250Z,88.70
2018-05-27T02:59:38.534Z,88.60
2018-05-27T03:04:39.815Z,87.90
2018-05-27T03:09:41.092Z,89.10
2018-05-27T03:14:43.151Z,89.70
2018-05-27T03:19:44.499Z,89.70
2018-05-27T03:24:45.776Z,87.20
2018-05-27T03:29:47.084Z,86.70
2018-05-27T03:34:49.136Z,88.80
2018-05-27T03:39:50.427Z,88.80
2018-05-27T03:44:52.464Z,90.10
2018-05-27T03:49:53.771Z,90.10
2018-05-27T03:54:55.053Z,90.40
2018-05-27T03:59:56.339Z,90.50
2018-05-27T04:05:10.014Z,90.20
2018-05-27T04:10:11.267Z,90.00
2018-05-27T04:15:12.542Z,88.80
2018-05-27T04:20:13.836Z,88.10
2018-05-27T04:25:15.872Z,86.90
2018-05-27T04:30:17.972Z,86.90
2018-05-27T04:35:20.312Z,85.80
2018-05-27T04:40:22.495Z,85.00
2018-05-27T04:45:24.529Z,84.20
2018-05-27T04:50:25.831Z,84.30
2018-05-27T04:55:27.168Z,85.20
2018-05-27T05:00:28.472Z,83.70
2018-05-27T05:05:29.763Z,84.30
2018-05-27T05:10:31.054Z,83.00
2018-05-27T05:15:32.343Z,83.70
2018-05-27T05:20:33.623Z,83.80
2018-05-27T05:25:35.661Z,83.50
2018-05-27T05:30:36.951Z,83.50
2018-05-27T05:35:38.240Z,82.60
2018-05-27T05:40:39.559Z,82.70
2018-05-27T05:45:40.844Z,83.60
2018-05-27T05:50:42.891Z,81.80
2018-05-27T05:55:44.172Z,81.10
2018-05-27T06:00:45.455Z,80.90
2018-05-27T06:05:47.486Z,78.40
2018-05-27T06:10:48.778Z,78.20
2018-05-27T06:15:50.072Z,77.10
2018-05-27T06:20:52.095Z,74.20
2018-05-27T06:25:53.386Z,73.90
2018-05-27T06:30:54.667Z,72.90
2018-05-27T06:35:55.955Z,71.50
2018-05-27T06:40:58.001Z,69.20
2018-05-27T06:45:59.294Z,69.20
2018-05-27T06:51:00.596Z,70.50
2018-05-27T06:56:01.875Z,67.80
2018-05-27T07:01:03.184Z,70.20
2018-05-27T07:06:05.233Z,70.00
2018-05-27T07:11:06.498Z,69.90
2018-05-27T07:16:07.757Z,71.00
2018-05-27T07:21:09.076Z,70.50
2018-05-27T07:26:10.398Z,68.60
2018-05-27T07:31:11.691Z,67.40
2018-05-27T07:36:13.003Z,67.70
2018-05-27T07:41:14.286Z,67.70
2018-05-27T07:46:15.587Z,65.90
2018-05-27T07:51:17.630Z,64.40
2018-05-27T07:56:18.895Z,64.30
2018-05-27T08:01:20.195Z,64.60
2018-05-27T08:06:21.520Z,63.80
2018-05-27T08:11:22.851Z,61.30
2018-05-27T08:16:24.140Z,59.60
2018-05-27T08:21:25.535Z,58.70
2018-05-27T08:26:26.831Z,58.00
2018-05-27T08:31:28.155Z,56.80
2018-05-27T08:36:29.413Z,55.00
2018-05-27T08:41:30.725Z,52.30
2018-05-27T08:46:32.068Z,51.00
2018-05-27T08:51:34.136Z,45.70
2018-05-27T08:56:35.463Z,45.60
2018-05-27T09:01:37.491Z,43.20
2018-05-27T09:06:38.824Z,43.20
2018-05-27T09:11:40.070Z,43.30
2018-05-27T09:16:42.134Z,43.60
2018-05-27T09:21:43.467Z,43.50
2018-05-27T09:26:44.736Z,43.60
2018-05-27T09:31:46.008Z,42.40
2018-05-27T09:36:48.097Z,41.60
2018-05-27T09:41:49.408Z,41.50
2018-05-27T09:46:50.713Z,40.50
2018-05-27T09:51:51.974Z,38.70
2018-05-27T09:56:53.222Z,37.80
2018-05-27T10:01:55.313Z,37.80
2018-05-27T10:06:56.557Z,37.80
2018-05-27T10:11:57.823Z,39.00
2018-05-27T10:16:59.082Z,37.20
2018-05-27T10:22:00.384Z,35.60
2018-05-27T10:27:01.636Z,36.00
2018-05-27T10:32:02.912Z,36.50
2018-05-27T10:37:04.183Z,35.90
2018-05-27T10:42:05.531Z,35.80
2018-05-27T10:47:07.603Z,32.40
2018-05-27T10:52:08.925Z,32.40
2018-05-27T10:57:11.159Z,33.50
2018-05-27T11:02:12.451Z,33.60
2018-05-27T11:07:13.764Z,31.70
2018-05-27T11:12:15.055Z,29.90
2018-05-27T11:17:17.124Z,29.90
2018-05-27T11:22:18.380Z,29.80
2018-05-27T11:27:19.648Z,28.80
2018-05-27T11:32:20.909Z,28.20
2018-05-27T11:37:22.163Z,26.50
2018-05-27T11:42:23.460Z,27.10
2018-05-27T11:47:24.756Z,25.60
2018-05-27T11:52:26.064Z,25.60
2018-05-27T11:57:27.372Z,23.60
2018-05-27T12:02:28.702Z,23.00
2018-05-27T12:07:30.000Z,22.10
2018-05-27T12:12:31.263Z,22.20
2018-05-27T12:17:32.539Z,21.20
2018-05-27T12:22:33.831Z,22.20
2018-05-27T12:27:35.916Z,21.00
2018-05-27T12:32:37.171Z,21.00
2018-05-27T12:37:38.473Z,20.80
2018-05-27T12:42:40.543Z,21.10
2018-05-27T12:47:41.851Z,21.10
2018-05-27T12:52:43.123Z,23.00
2018-05-27T12:57:45.135Z,24.40
2018-05-27T13:02:46.471Z,24.30
2018-05-27T13:07:47.803Z,24.20
2018-05-27T13:12:49.855Z,23.70
2018-05-27T13:17:51.131Z,23.70
2018-05-27T13:22:52.474Z,25.30
2018-05-27T13:27:54.328Z,24.20
2018-05-27T13:32:55.645Z,24.70
2018-05-27T13:37:56.915Z,24.90
2018-05-27T13:42:58.172Z,23.20
2018-05-27T13:47:59.434Z,23.80
2018-05-27T13:53:00.709Z,24.20
2018-05-27T13:58:01.990Z,25.10
2018-05-27T14:03:03.283Z,26.10
2018-05-27T14:08:04.594Z,25.40
2018-05-27T14:13:05.922Z,26.90
2018-05-27T14:18:07.205Z,27.00
2018-05-27T14:23:08.496Z,28.50
2018-05-27T14:28:09.797Z,28.20
2018-05-27T14:33:11.113Z,28.80
2018-05-27T14:38:12.375Z,29.50
2018-05-27T14:43:13.655Z,30.30
2018-05-27T14:48:14.932Z,31.00
2018-05-27T14:53:16.200Z,34.20
2018-05-27T14:58:18.207Z,34.20
2018-05-27T15:03:19.484Z,34.20
2018-05-27T15:08:20.763Z,33.30
2018-05-27T15:13:22.096Z,36.20
2018-05-27T15:18:23.432Z,34.60
2018-05-27T15:23:24.721Z,34.90
2018-05-27T15:28:26.740Z,36.70
2018-05-27T15:33:28.002Z,36.70
2018-05-27T15:38:29.299Z,36.60
2018-05-27T15:43:30.560Z,35.90
2018-05-27T15:48:31.891Z,35.90
2018-05-27T15:53:33.955Z,32.90
2018-05-27T15:58:35.228Z,32.00
2018-05-27T16:03:36.518Z,29.50
2018-05-27T16:08:37.789Z,29.70
2018-05-27T16:13:39.831Z,32.70
2018-05-27T16:18:41.131Z,32.60
2018-05-27T16:23:42.422Z,32.00
2018-05-27T16:28:43.685Z,27.30
2018-05-27T16:33:44.962Z,25.90
2018-05-27T16:38:46.971Z,23.40
2018-05-27T16:43:48.275Z,23.30
2018-05-27T16:48:50.317Z,23.80
2018-05-27T16:53:51.595Z,23.80
2018-05-27T16:58:52.860Z,24.50
2018-05-27T17:03:54.164Z,24.40
2018-05-27T17:08:55.430Z,24.10
2018-05-27T17:13:56.699Z,24.60
2018-05-27T17:18:57.963Z,24.80
2018-05-27T17:24:00.001Z,25.80
2018-05-27T17:29:01.292Z,25.80
2018-05-27T17:34:02.593Z,27.60
2018-05-27T17:39:04.756Z,29.50
2018-05-27T17:44:06.087Z,32.10
2018-05-27T17:49:07.367Z,35.10
2018-05-27T17:54:08.632Z,37.50
2018-05-27T17:59:10.657Z,44.00
2018-05-27T18:04:12.016Z,43.90
2018-05-27T18:09:13.274Z,47.90
2018-05-27T18:14:14.573Z,48.90
2018-05-27T18:19:16.653Z,52.80
2018-05-27T18:24:17.909Z,52.80
2018-05-27T18:29:19.188Z,53.70
2018-05-27T18:34:20.473Z,55.80
2018-05-27T18:39:21.747Z,56.30
2018-05-27T18:44:23.028Z,58.10
2018-05-27T18:49:25.076Z,60.70
2018-05-27T18:54:26.387Z,60.60
2018-05-27T18:59:27.692Z,62.70
2018-05-27T19:04:28.988Z,64.80
2018-05-27T19:09:30.325Z,66.20
2018-05-27T19:14:31.600Z,67.90
2018-05-27T19:19:32.928Z,69.60
2018-05-27T19:24:34.249Z,70.20
2018-05-27T19:29:35.549Z,68.60
2018-05-27T19:34:36.819Z,67.50
2018-05-27T19:39:38.088Z,68.60
2018-05-27T19:44:39.392Z,70.50
2018-05-27T19:49:42.161Z,71.90
2018-05-27T19:54:43.496Z,71.80
2018-05-27T19:59:44.796Z,72.00
2018-05-27T20:04:46.084Z,73.70
2018-05-27T20:09:47.416Z,72.00
2018-05-27T20:14:48.688Z,72.00
2018-05-27T20:19:49.983Z,71.30
2018-05-27T20:24:51.282Z,68.70
2018-05-27T20:29:52.560Z,68.60
2018-05-27T20:34:53.863Z,68.70
2018-05-27T20:39:55.184Z,67.80
2018-05-27T20:44:56.470Z,67.30
2018-05-27T20:49:57.787Z,68.50
2018-05-27T20:54:59.024Z,69.40
2018-05-27T21:00:00.308Z,70.20
2018-05-27T21:05:02.345Z,70.60
2018-05-27T21:10:03.656Z,70.60
2018-05-27T21:15:05.704Z,71.80
2018-05-27T21:20:06.975Z,71.80
2018-05-27T21:25:08.241Z,72.60
2018-05-27T21:30:09.518Z,72.30
2018-05-27T21:35:11.540Z,70.80
2018-05-27T21:40:12.838Z,70.70
2018-05-27T21:45:14.104Z,70.90
2018-05-27T21:50:15.401Z,72.60
2018-05-27T21:55:16.675Z,74.20
2018-05-27T22:00:18.728Z,76.50
2018-05-27T22:05:20.023Z,76.50
2018-05-27T22:10:21.300Z,77.20
2018-05-27T22:15:22.594Z,77.70
2018-05-27T22:20:23.871Z,78.50
2018-05-27T22:25:25.142Z,79.40
2018-05-27T22:30:26.399Z,80.30
2018-05-27T22:35:27.683Z,80.50
2018-05-27T22:40:29.675Z,82.30
2018-05-27T22:45:31.694Z,81.90
2018-05-27T22:50:32.994Z,81.80
2018-05-27T22:55:34.242Z,82.30
2018-05-27T23:00:35.532Z,82.60
2018-05-27T23:05:36.859Z,83.20
2018-05-27T23:10:38.895Z,83.80
2018-05-27T23:15:40.195Z,83.70
2018-05-27T23:20:41.484Z,84.60
2018-05-27T23:25:43.528Z,84.50
2018-05-27T23:30:44.818Z,84.50
2018-05-27T23:35:46.853Z,85.20
2018-05-27T23:40:48.134Z,84.80
2018-05-27T23:45:49.431Z,84.50
2018-05-27T23:50:51.490Z,85.20
2018-05-27T23:55:53.467Z,85.20
